createdAt,value
2023-02-27T00:02:18.178Z,-0.30
2023-02-27T00:04:44.903Z,-0.30
2023-02-27T00:07:11.535Z,-0.30
2023-02-27T00:09:40.050Z,-0.30
2023-02-27T00:12:07.873Z,-0.30
2023-02-27T00:14:34.590Z,-0.30
2023-02-27T00:17:01.244Z,-0.30
2023-02-27T00:19:27.846Z,-0.30
2023-02-27T00:21:54.423Z,-0.40
2023-02-27T00:24:22.418Z,-0.30
2023-02-27T00:26:49.075Z,-0.30
2023-02-27T00:29:15.681Z,-0.30
2023-02-27T00:31:42.281Z,-0.40
2023-02-27T00:34:08.857Z,-0.40
2023-02-27T00:36:35.393Z,-0.40
2023-02-27T00:39:01.978Z,-0.40
2023-02-27T00:41:28.659Z,-0.40
2023-02-27T00:43:55.380Z,-0.40
2023-02-27T00:46:21.964Z,-0.50
2023-02-27T00:48:48.508Z,-0.50
2023-02-27T00:51:15.075Z,-0.60
2023-02-27T00:53:41.714Z,-0.60
2023-02-27T00:56:08.353Z,-0.60
2023-02-27T00:58:34.908Z,-0.70
2023-02-27T01:01:01.479Z,-0.70
2023-02-27T01:03:28.074Z,-0.60
2023-02-27T01:05:54.610Z,-0.60
2023-02-27T01:08:21.226Z,-0.60
2023-02-27T01:10:47.828Z,-0.60
2023-02-27T01:13:14.414Z,-0.70
2023-02-27T01:15:41.065Z,-0.70
2023-02-27T01:18:07.649Z,-0.70
2023-02-27T01:20:34.392Z,-0.60
2023-02-27T01:23:00.945Z,-0.70
2023-02-27T01:25:27.565Z,-0.70
2023-02-27T01:27:54.141Z,-0.80
2023-02-27T01:30:20.759Z,-0.80
2023-02-27T01:32:47.454Z,-0.80
2023-02-27T01:35:14.185Z,-0.80
2023-02-27T01:37:40.896Z,-0.80
2023-02-27T01:40:08.352Z,-0.90
2023-02-27T01:42:35.324Z,-0.90
2023-02-27T01:45:04.809Z,-1.00
2023-02-27T01:47:31.582Z,-0.90
2023-02-27T01:49:59.288Z,-0.80
2023-02-27T01:52:26.509Z,-0.90
2023-02-27T01:54:53.082Z,-0.80
2023-02-27T01:57:19.993Z,-0.80
2023-02-27T01:59:46.554Z,-0.70
2023-02-27T02:02:17.080Z,-0.80
2023-02-27T02:04:43.854Z,-0.70
2023-02-27T02:07:12.360Z,-0.80
2023-02-27T02:09:56.228Z,-0.90
2023-02-27T02:12:24.919Z,-0.80
2023-02-27T02:14:51.482Z,-0.70
2023-02-27T02:17:39.977Z,-0.80
2023-02-27T02:20:25.237Z,-0.80
2023-02-27T02:23:01.808Z,-0.80
2023-02-27T02:25:44.761Z,-0.90
2023-02-27T02:28:29.111Z,-0.80
2023-02-27T02:31:01.812Z,-0.80
2023-02-27T02:33:50.573Z,-0.80
2023-02-27T02:36:26.292Z,-0.80
2023-02-27T02:39:03.006Z,-0.80
2023-02-27T02:41:42.122Z,-0.20
2023-02-27T02:44:28.925Z,-0.90
2023-02-27T02:47:01.502Z,-0.90
2023-02-27T02:49:32.696Z,-0.90
2023-02-27T02:52:05.393Z,-0.50
2023-02-27T02:54:44.110Z,-0.90
2023-02-27T02:57:16.776Z,-0.90
2023-02-27T02:59:43.297Z,-0.90
2023-02-27T03:02:12.119Z,-0.90
2023-02-27T03:04:49.596Z,-0.90
2023-02-27T03:07:22.296Z,-0.90
2023-02-27T03:10:07.628Z,-0.90
2023-02-27T03:12:35.670Z,-0.90
2023-02-27T03:15:08.262Z,-0.90
2023-02-27T03:17:53.587Z,-1.00
2023-02-27T03:20:29.495Z,-1.00
2023-02-27T03:22:57.996Z,-1.00
2023-02-27T03:25:26.451Z,-1.00
2023-02-27T03:27:54.928Z,-1.00
2023-02-27T03:30:27.739Z,-1.00
2023-02-27T03:33:20.613Z,-1.00
2023-02-27T03:35:51.841Z,-1.00
2023-02-27T03:38:22.866Z,-1.00
2023-02-27T03:40:53.745Z,-1.00
2023-02-27T03:43:29.086Z,-1.10
2023-02-27T03:46:07.164Z,-1.10
2023-02-27T03:48:34.052Z,-1.10
2023-02-27T03:51:00.839Z,-1.10
2023-02-27T03:53:27.434Z,-1.10
2023-02-27T03:55:56.277Z,-1.10
2023-02-27T03:58:22.911Z,-1.10
2023-02-27T04:00:49.585Z,-1.20
2023-02-27T04:03:16.361Z,-1.20
2023-02-27T04:05:43.009Z,-1.20
2023-02-27T04:08:21.653Z,-1.20
2023-02-27T04:10:48.290Z,-1.20
2023-02-27T04:13:30.252Z,-1.20
2023-02-27T04:16:15.778Z,-1.20
2023-02-27T04:18:51.695Z,-1.30
2023-02-27T04:21:18.224Z,-1.20
2023-02-27T04:23:44.776Z,-1.20
2023-02-27T04:26:23.845Z,-0.90
2023-02-27T04:28:53.555Z,-1.30
2023-02-27T04:31:24.602Z,-1.30
2023-02-27T04:33:57.676Z,-1.30
2023-02-27T04:36:30.987Z,-1.40
2023-02-27T04:39:15.238Z,-1.30
2023-02-27T04:41:45.490Z,-1.30
2023-02-27T04:44:12.523Z,-1.30
2023-02-27T04:46:40.654Z,-1.30
2023-02-27T04:49:07.205Z,-1.30
2023-02-27T04:51:36.565Z,-1.20
2023-02-27T04:54:14.472Z,-1.30
2023-02-27T04:56:43.676Z,-1.30
2023-02-27T04:59:16.402Z,-1.40
2023-02-27T05:02:16.036Z,-1.30
2023-02-27T05:04:44.433Z,-1.40
2023-02-27T05:07:13.678Z,-1.30
2023-02-27T05:09:46.374Z,-1.30
2023-02-27T05:12:12.937Z,-1.40
2023-02-27T05:14:43.747Z,-1.40
2023-02-27T05:17:14.603Z,-1.50
2023-02-27T05:19:42.590Z,-1.40
2023-02-27T05:22:23.697Z,-1.40
2023-02-27T05:25:06.816Z,-1.40
2023-02-27T05:27:33.349Z,-1.40
2023-02-27T05:30:05.956Z,-1.40
2023-02-27T05:32:35.713Z,-1.40
2023-02-27T05:35:09.329Z,-1.50
2023-02-27T05:37:54.133Z,-1.40
2023-02-27T05:40:27.945Z,-1.40
2023-02-27T05:42:58.443Z,-1.50
2023-02-27T05:45:28.533Z,-1.40
2023-02-27T05:47:58.897Z,-0.80
2023-02-27T05:50:27.959Z,-1.10
2023-02-27T05:52:56.567Z,-1.40
2023-02-27T05:55:30.062Z,-1.40
2023-02-27T05:57:59.188Z,-1.40
2023-02-27T06:00:37.336Z,-1.40
2023-02-27T06:03:04.331Z,-1.40
2023-02-27T06:05:31.062Z,-1.30
2023-02-27T06:07:57.688Z,-1.20
2023-02-27T06:10:24.649Z,-1.40
2023-02-27T06:12:51.283Z,-1.40
2023-02-27T06:15:19.265Z,-1.40
2023-02-27T06:17:45.881Z,-1.40
2023-02-27T06:20:12.624Z,-1.40
2023-02-27T06:22:39.338Z,-1.20
2023-02-27T06:25:06.147Z,-1.20
2023-02-27T06:27:32.762Z,-1.30
2023-02-27T06:29:59.345Z,-1.20
2023-02-27T06:32:26.223Z,-1.20
2023-02-27T06:34:53.154Z,-1.30
2023-02-27T06:37:19.999Z,-1.30
2023-02-27T06:39:48.043Z,-0.80
2023-02-27T06:42:14.756Z,-1.30
2023-02-27T06:44:41.354Z,-1.30
2023-02-27T06:47:08.260Z,-1.30
2023-02-27T06:52:56.890Z,-1.20
2023-02-27T06:55:25.575Z,-1.00
2023-02-27T06:57:52.332Z,-0.90
2023-02-27T07:00:19.217Z,-0.60
2023-02-27T07:02:45.925Z,-0.30
2023-02-27T07:05:12.627Z,0.00
2023-02-27T07:07:39.568Z,0.20
2023-02-27T07:10:07.845Z,0.40
2023-02-27T07:12:34.639Z,0.70
2023-02-27T07:15:01.355Z,0.90
2023-02-27T07:17:27.952Z,1.40
2023-02-27T07:19:54.642Z,1.80
2023-02-27T07:22:21.294Z,2.30
2023-02-27T07:24:47.916Z,2.80
2023-02-27T07:27:14.557Z,3.40
2023-02-27T07:29:41.137Z,3.50
2023-02-27T07:32:07.781Z,3.60
2023-02-27T07:34:34.918Z,3.80
2023-02-27T07:37:01.529Z,3.80
2023-02-27T07:39:28.129Z,3.80
2023-02-27T07:41:54.736Z,4.30
2023-02-27T07:44:21.332Z,4.00
2023-02-27T07:46:47.934Z,4.40
2023-02-27T07:49:14.587Z,4.90
2023-02-27T07:51:41.207Z,5.40
2023-02-27T07:54:07.836Z,5.70
2023-02-27T07:56:34.474Z,6.50
2023-02-27T07:59:01.277Z,7.00
2023-02-27T08:01:27.911Z,7.20
2023-02-27T08:03:55.244Z,7.80
2023-02-27T08:06:23.515Z,8.50
2023-02-27T08:08:50.348Z,9.10
2023-02-27T08:11:18.376Z,9.10
2023-02-27T08:14:00.205Z,9.30
2023-02-27T08:16:28.632Z,9.40
2023-02-27T08:18:55.682Z,9.40
2023-02-27T08:21:22.383Z,9.80
2023-02-27T08:23:49.047Z,10.50
2023-02-27T08:26:15.703Z,10.70
2023-02-27T08:28:42.288Z,10.70
2023-02-27T08:31:09.025Z,10.80
2023-02-27T08:33:35.675Z,10.80
2023-02-27T08:36:02.639Z,10.90
2023-02-27T08:38:29.294Z,10.40
2023-02-27T08:40:55.858Z,10.80
2023-02-27T08:43:23.045Z,11.10
2023-02-27T08:45:50.120Z,10.80
2023-02-27T08:48:18.433Z,11.00
2023-02-27T08:50:46.391Z,10.50
2023-02-27T08:53:13.324Z,9.80
2023-02-27T08:55:39.907Z,10.50
2023-02-27T08:58:06.620Z,11.00
2023-02-27T09:00:33.176Z,10.90
2023-02-27T09:03:01.251Z,10.90
2023-02-27T09:05:28.465Z,11.00
2023-02-27T09:07:55.199Z,11.10
2023-02-27T09:10:21.892Z,11.20
2023-02-27T09:12:49.343Z,11.20
2023-02-27T09:15:16.453Z,11.60
2023-02-27T09:17:43.087Z,12.00
2023-02-27T09:20:10.725Z,12.80
2023-02-27T09:22:37.365Z,13.40
2023-02-27T09:25:04.112Z,13.70
2023-02-27T09:27:30.693Z,13.40
2023-02-27T09:29:57.408Z,14.40
2023-02-27T09:32:24.659Z,15.30
2023-02-27T09:34:51.468Z,15.40
2023-02-27T09:37:19.279Z,15.20
2023-02-27T09:39:46.410Z,14.70
2023-02-27T09:42:19.238Z,14.80
2023-02-27T09:44:47.989Z,13.60
2023-02-27T09:47:17.814Z,11.60
2023-02-27T09:50:10.953Z,11.60
2023-02-27T09:52:37.738Z,11.20
2023-02-27T09:55:05.325Z,11.10
2023-02-27T09:57:32.007Z,10.50
2023-02-27T10:00:05.282Z,10.20
2023-02-27T10:02:49.803Z,10.60
2023-02-27T10:05:21.129Z,11.50
2023-02-27T10:08:01.001Z,12.70
2023-02-27T10:10:40.437Z,13.90
2023-02-27T10:13:25.842Z,14.80
2023-02-27T10:15:52.997Z,16.20
2023-02-27T10:18:30.819Z,15.20
2023-02-27T10:21:03.198Z,13.30
2023-02-27T10:23:32.597Z,13.60
2023-02-27T10:25:59.282Z,13.10
2023-02-27T10:28:26.144Z,12.70
2023-02-27T10:30:58.700Z,11.70
2023-02-27T10:33:51.691Z,10.70
2023-02-27T10:36:32.424Z,9.90
2023-02-27T10:39:01.920Z,8.90
2023-02-27T10:41:29.436Z,7.90
2023-02-27T10:43:57.530Z,7.10
2023-02-27T10:46:28.952Z,6.90
2023-02-27T10:48:58.263Z,7.40
2023-02-27T10:51:28.106Z,8.50
2023-02-27T10:54:15.133Z,8.70
2023-02-27T10:56:44.538Z,8.30
2023-02-27T10:59:25.482Z,8.40
2023-02-27T11:01:54.431Z,8.00
2023-02-27T11:04:31.086Z,7.80
2023-02-27T11:06:58.205Z,7.50
2023-02-27T11:09:26.565Z,7.20
2023-02-27T11:11:53.848Z,6.40
2023-02-27T11:14:31.182Z,6.40
2023-02-27T11:16:59.206Z,6.10
2023-02-27T11:19:30.550Z,5.80
2023-02-27T11:22:08.185Z,7.00
2023-02-27T11:24:35.142Z,9.20
2023-02-27T11:27:06.627Z,11.00
2023-02-27T11:29:33.983Z,12.30
2023-02-27T11:32:03.276Z,13.10
2023-02-27T11:34:31.595Z,13.80
2023-02-27T11:37:02.560Z,14.50
2023-02-27T11:39:35.385Z,15.00
2023-02-27T11:42:07.160Z,14.50
2023-02-27T11:44:49.812Z,14.10
2023-02-27T11:47:21.111Z,14.30
2023-02-27T11:49:56.890Z,14.30
2023-02-27T11:52:29.470Z,14.60
2023-02-27T11:54:58.197Z,14.20
2023-02-27T11:57:38.092Z,14.60
2023-02-27T12:00:25.167Z,15.30
2023-02-27T12:03:03.639Z,14.70
2023-02-27T12:05:32.970Z,14.20
2023-02-27T12:08:02.534Z,13.80
2023-02-27T12:10:31.125Z,13.60
2023-02-27T12:13:05.897Z,14.10
2023-02-27T12:15:41.907Z,14.40
2023-02-27T12:18:11.315Z,14.60
2023-02-27T12:20:57.528Z,13.30
2023-02-27T12:23:42.917Z,11.70
2023-02-27T12:26:12.574Z,10.80
2023-02-27T12:28:43.509Z,9.80
2023-02-27T12:31:29.231Z,9.60
2023-02-27T12:34:03.920Z,9.40
2023-02-27T12:36:30.827Z,9.70
2023-02-27T12:38:57.482Z,9.60
2023-02-27T12:41:27.419Z,9.30
2023-02-27T12:44:03.293Z,9.00
2023-02-27T12:46:45.004Z,8.40
2023-02-27T12:49:21.998Z,8.40
2023-02-27T12:51:48.632Z,9.20
2023-02-27T12:54:33.038Z,9.60
2023-02-27T12:57:18.551Z,9.40
2023-02-27T12:59:48.252Z,8.50
2023-02-27T13:02:33.854Z,8.20
2023-02-27T13:05:09.052Z,8.30
2023-02-27T13:07:38.611Z,8.30
2023-02-27T13:10:15.869Z,7.80
2023-02-27T13:12:56.587Z,8.00
2023-02-27T13:15:26.203Z,8.80
2023-02-27T13:18:23.634Z,10.20
2023-02-27T13:20:54.023Z,11.20
2023-02-27T13:23:28.436Z,12.50
2023-02-27T13:25:56.608Z,13.20
2023-02-27T13:28:25.246Z,13.70
2023-02-27T13:31:06.029Z,14.20
2023-02-27T13:34:08.307Z,14.20
2023-02-27T13:36:40.379Z,13.00
2023-02-27T13:39:26.946Z,13.00
2023-02-27T13:41:53.519Z,11.90
2023-02-27T13:44:20.188Z,11.20
2023-02-27T13:46:46.900Z,10.30
2023-02-27T13:49:29.522Z,9.80
2023-02-27T13:51:59.310Z,8.90
2023-02-27T13:54:28.052Z,8.70
2023-02-27T13:56:54.568Z,8.40
2023-02-27T13:59:23.814Z,7.90
2023-02-27T14:01:55.433Z,7.90
2023-02-27T14:04:25.184Z,8.00
2023-02-27T14:06:56.352Z,8.70
2023-02-27T14:09:23.023Z,9.00
2023-02-27T14:11:54.086Z,9.30
2023-02-27T14:14:39.748Z,9.00
2023-02-27T14:17:06.608Z,8.80
2023-02-27T14:19:42.146Z,8.80
2023-02-27T14:22:11.699Z,8.70
2023-02-27T14:24:49.687Z,8.60
2023-02-27T14:27:19.526Z,8.70
2023-02-27T14:29:47.904Z,8.70
2023-02-27T14:32:21.730Z,8.40
2023-02-27T14:34:48.903Z,8.20
2023-02-27T14:37:17.196Z,8.00
2023-02-27T14:39:44.139Z,7.60
2023-02-27T14:42:10.757Z,7.80
2023-02-27T14:44:39.555Z,7.70
2023-02-27T14:47:06.748Z,7.30
2023-02-27T14:49:34.793Z,7.50
2023-02-27T14:52:12.427Z,7.70
2023-02-27T14:54:39.099Z,7.70
2023-02-27T14:57:06.229Z,7.40
2023-02-27T14:59:34.661Z,7.50
2023-02-27T15:02:04.355Z,7.50
2023-02-27T15:04:32.393Z,7.50
2023-02-27T15:06:59.719Z,7.60
2023-02-27T15:09:42.933Z,7.10
2023-02-27T15:12:15.944Z,6.80
2023-02-27T15:14:42.563Z,6.60
2023-02-27T15:17:16.881Z,6.10
2023-02-27T15:19:48.097Z,5.70
2023-02-27T15:22:37.607Z,5.40
2023-02-27T15:25:07.531Z,5.20
2023-02-27T15:27:37.071Z,5.10
2023-02-27T15:30:04.699Z,5.10
2023-02-27T15:32:34.015Z,5.20
2023-02-27T15:35:02.587Z,5.20
2023-02-27T15:37:30.513Z,5.00
2023-02-27T15:39:58.133Z,5.20
2023-02-27T15:42:26.435Z,4.90
2023-02-27T15:44:53.436Z,4.90
2023-02-27T15:47:25.058Z,4.90
2023-02-27T15:49:54.174Z,5.00
2023-02-27T15:52:22.520Z,4.90
2023-02-27T15:55:02.715Z,5.00
2023-02-27T15:57:30.664Z,4.90
2023-02-27T15:59:58.575Z,4.80
2023-02-27T16:02:30.212Z,4.70
2023-02-27T16:04:57.329Z,4.60
2023-02-27T16:07:25.561Z,4.50
2023-02-27T16:10:02.991Z,4.40
2023-02-27T16:12:37.080Z,4.10
2023-02-27T16:15:27.042Z,3.90
2023-02-27T16:17:55.444Z,3.80
2023-02-27T16:20:29.998Z,3.80
2023-02-27T16:23:04.009Z,3.50
2023-02-27T16:25:30.682Z,3.50
2023-02-27T16:27:57.353Z,3.40
2023-02-27T16:30:24.055Z,3.40
2023-02-27T16:32:56.470Z,3.20
2023-02-27T16:35:23.567Z,3.20
2023-02-27T16:37:50.432Z,3.60
2023-02-27T16:40:18.617Z,3.00
2023-02-27T16:42:45.702Z,3.00
2023-02-27T16:45:18.511Z,3.00
2023-02-27T16:47:47.741Z,2.90
2023-02-27T16:50:20.171Z,3.00
2023-02-27T16:52:46.747Z,2.90
2023-02-27T16:55:13.544Z,3.20
2023-02-27T16:57:40.217Z,2.70
2023-02-27T17:00:10.045Z,2.70
2023-02-27T17:02:37.069Z,2.70
2023-02-27T17:05:03.797Z,2.70
2023-02-27T17:07:30.574Z,2.50
2023-02-27T17:09:57.280Z,2.50
2023-02-27T17:12:23.868Z,2.50
2023-02-27T17:14:50.496Z,2.50
2023-02-27T17:17:17.119Z,2.40
2023-02-27T17:19:43.744Z,2.30
2023-02-27T17:22:13.624Z,2.30
2023-02-27T17:24:40.243Z,2.30
2023-02-27T17:27:06.906Z,2.30
2023-02-27T17:29:33.461Z,2.40
2023-02-27T17:32:00.097Z,2.30
2023-02-27T17:34:26.699Z,2.30
2023-02-27T17:36:53.395Z,2.60
2023-02-27T17:39:20.075Z,2.30
2023-02-27T17:41:47.020Z,2.20
2023-02-27T17:44:13.624Z,2.30
2023-02-27T17:46:40.607Z,2.10
2023-02-27T17:49:07.597Z,2.20
2023-02-27T17:51:34.318Z,2.10
2023-02-27T17:54:02.446Z,2.10
2023-02-27T17:56:29.364Z,2.10
2023-02-27T17:58:56.209Z,2.30
2023-02-27T18:01:25.820Z,2.00
2023-02-27T18:03:54.324Z,1.90
2023-02-27T18:06:21.386Z,1.90
2023-02-27T18:08:48.598Z,1.80
2023-02-27T18:11:16.661Z,1.80
2023-02-27T18:13:43.436Z,1.70
2023-02-27T18:16:10.232Z,1.70
2023-02-27T18:18:37.600Z,1.70
2023-02-27T18:21:06.675Z,1.60
2023-02-27T18:23:33.559Z,1.60
2023-02-27T18:26:00.385Z,1.50
2023-02-27T18:28:27.364Z,1.50
2023-02-27T18:30:54.028Z,1.40
2023-02-27T18:33:20.791Z,1.40
2023-02-27T18:35:47.423Z,1.40
2023-02-27T18:38:14.157Z,1.40
2023-02-27T18:40:40.774Z,1.40
2023-02-27T18:43:07.657Z,1.90
2023-02-27T18:45:35.064Z,1.40
2023-02-27T18:48:01.835Z,1.40
2023-02-27T18:50:28.874Z,1.40
2023-02-27T18:52:56.171Z,1.30
2023-02-27T18:55:22.785Z,1.40
2023-02-27T18:57:50.910Z,1.90
2023-02-27T19:00:24.852Z,1.40
2023-02-27T19:02:51.786Z,1.40
2023-02-27T19:05:18.587Z,1.40
2023-02-27T19:07:45.535Z,1.40
2023-02-27T19:10:12.478Z,1.70
2023-02-27T19:12:39.880Z,1.40
2023-02-27T19:15:06.797Z,1.30
2023-02-27T19:17:33.768Z,1.30
2023-02-27T19:20:00.384Z,1.80
2023-02-27T19:22:30.719Z,1.30
2023-02-27T19:24:57.397Z,1.30
2023-02-27T19:27:24.408Z,1.30
2023-02-27T19:29:51.355Z,1.30
2023-02-27T19:32:18.069Z,1.30
2023-02-27T19:34:44.763Z,1.30
2023-02-27T19:37:11.359Z,2.00
2023-02-27T19:39:38.074Z,1.60
2023-02-27T19:42:04.678Z,1.30
2023-02-27T19:44:31.233Z,1.20
2023-02-27T19:46:57.943Z,1.20
2023-02-27T19:49:24.583Z,1.20
2023-02-27T19:51:51.257Z,1.30
2023-02-27T19:54:17.919Z,1.10
2023-02-27T19:56:44.605Z,1.10
2023-02-27T19:59:11.902Z,1.00
2023-02-27T20:01:38.998Z,1.00
2023-02-27T20:04:06.321Z,1.00
2023-02-27T20:06:41.543Z,1.00
2023-02-27T20:09:09.453Z,1.00
2023-02-27T20:11:36.075Z,1.00
2023-02-27T20:14:03.243Z,1.00
2023-02-27T20:16:34.389Z,1.00
2023-02-27T20:19:01.572Z,1.00
2023-02-27T20:21:29.336Z,1.00
2023-02-27T20:23:56.211Z,1.10
2023-02-27T20:26:24.988Z,1.30
2023-02-27T20:28:52.616Z,1.10
2023-02-27T20:31:21.208Z,1.10
2023-02-27T20:33:48.542Z,1.10
2023-02-27T20:36:15.208Z,1.00
2023-02-27T20:38:42.089Z,1.00
2023-02-27T20:41:09.625Z,1.00
2023-02-27T20:43:38.304Z,1.00
2023-02-27T20:46:06.238Z,1.00
2023-02-27T20:48:33.326Z,1.00
2023-02-27T20:51:07.571Z,0.90
2023-02-27T20:53:35.300Z,0.90
2023-02-27T20:56:01.985Z,0.90
2023-02-27T20:58:28.653Z,0.80
2023-02-27T21:00:55.275Z,1.10
2023-02-27T21:03:21.830Z,1.10
2023-02-27T21:05:49.079Z,0.70
2023-02-27T21:08:15.843Z,0.70
2023-02-27T21:10:42.481Z,0.70
2023-02-27T21:13:09.132Z,0.60
2023-02-27T21:15:38.986Z,0.60
2023-02-27T21:18:05.616Z,0.60
2023-02-27T21:20:32.365Z,0.50
2023-02-27T21:22:59.029Z,0.50
2023-02-27T21:25:26.140Z,0.50
2023-02-27T21:27:55.580Z,0.40
2023-02-27T21:30:22.172Z,0.40
2023-02-27T21:32:48.720Z,0.40
2023-02-27T21:35:16.230Z,0.50
2023-02-27T21:37:46.840Z,0.40
2023-02-27T21:40:13.911Z,0.30
2023-02-27T21:42:40.523Z,0.30
2023-02-27T21:45:07.371Z,0.60
2023-02-27T21:47:33.988Z,0.30
2023-02-27T21:50:00.650Z,0.40
2023-02-27T21:52:27.299Z,0.30
2023-02-27T21:54:54.307Z,0.20
2023-02-27T21:57:21.718Z,0.10
2023-02-27T21:59:48.307Z,0.20
2023-02-27T22:02:15.003Z,0.30
2023-02-27T22:04:41.850Z,0.20
2023-02-27T22:07:11.104Z,0.70
2023-02-27T22:09:38.006Z,0.20
2023-02-27T22:12:05.402Z,0.50
2023-02-27T22:14:32.058Z,0.80
2023-02-27T22:16:58.698Z,0.10
2023-02-27T22:19:25.274Z,0.00
2023-02-27T22:21:51.945Z,0.00
2023-02-27T22:24:18.719Z,0.00
2023-02-27T22:26:45.815Z,0.10
2023-02-27T22:29:12.723Z,0.10
2023-02-27T22:31:40.260Z,0.10
2023-02-27T22:34:08.208Z,0.00
2023-02-27T22:36:35.395Z,0.00
2023-02-27T22:39:02.038Z,0.00
2023-02-27T22:41:30.639Z,0.00
2023-02-27T22:43:58.082Z,-0.10
2023-02-27T22:46:29.415Z,-0.10
2023-02-27T22:48:56.784Z,0.00
2023-02-27T22:51:24.865Z,0.20
2023-02-27T22:53:51.579Z,-0.10
2023-02-27T22:56:18.217Z,-0.20
2023-02-27T22:58:45.119Z,-0.20
2023-02-27T23:01:13.270Z,-0.20
2023-02-27T23:03:40.544Z,-0.20
2023-02-27T23:06:08.451Z,-0.20
2023-02-27T23:08:35.259Z,-0.20
2023-02-27T23:11:01.846Z,-0.30
2023-02-27T23:13:28.533Z,-0.20
2023-02-27T23:15:55.123Z,-0.20
2023-02-27T23:18:21.696Z,-0.30
2023-02-27T23:20:48.258Z,-0.30
2023-02-27T23:23:14.874Z,-0.30
2023-02-27T23:25:41.604Z,-0.30
2023-02-27T23:28:08.261Z,-0.30
2023-02-27T23:30:34.861Z,-0.30
2023-02-27T23:33:01.514Z,-0.30
2023-02-27T23:35:28.685Z,-0.40
2023-02-27T23:37:56.728Z,-0.40
2023-02-27T23:40:24.345Z,-0.40
2023-02-27T23:42:51.227Z,-0.40
2023-02-27T23:45:23.870Z,-0.40
2023-02-27T23:47:54.408Z,-0.40
2023-02-27T23:50:23.022Z,-0.40
2023-02-27T23:52:50.521Z,-0.40
2023-02-27T23:55:18.308Z,-0.40
2023-02-27T23:57:45.142Z,-0.40
